Time;durP1;ratioP1;P1;durP2;ratioP2;P2;SDS_P1;SDS_P2;PMS_P1;PMS_P2;Temp;Humidity;BMP_temperature;BMP_pressure;BME280_temperature;BME280_humidity;BME280_pressure;Samples;Min_cycle;Max_cycle;Signal;HPM_P1;HPM_P2
2023/01/29 00:01:06;;;;;;;14.75;8.80;;;;;;;1.77;79.40;99634.44;5044207;28;20031;-93
2023/01/29 00:03:32;;;;;;;12.57;8.52;;;;;;;1.80;78.61;99618.09;5044075;28;20409;-93
2023/01/29 00:05:58;;;;;;;13.55;9.30;;;;;;;1.81;79.03;99632.22;5044457;28;20054;-93
2023/01/29 00:08:23;;;;;;;15.38;8.88;;;;;;;1.90;78.89;99633.63;5043975;28;20031;-93
2023/01/29 00:10:49;;;;;;;13.10;7.97;;;;;;;1.80;79.23;99628.72;5043852;28;20450;-94
2023/01/29 00:13:14;;;;;;;13.70;8.77;;;;;;;1.80;78.69;99628.72;5044108;28;20024;-93
2023/01/29 00:15:40;;;;;;;11.20;7.50;;;;;;;1.88;78.99;99638.31;5044044;28;20024;-93
2023/01/29 00:18:05;;;;;;;13.45;8.32;;;;;;;1.80;78.85;99623.41;5044117;28;20024;-93
2023/01/29 00:20:31;;;;;;;12.68;7.55;;;;;;;1.81;78.19;99622.41;5044050;28;20050;-93
2023/01/29 00:22:56;;;;;;;11.02;7.68;;;;;;;1.80;78.39;99631.38;5044198;28;20023;-93
2023/01/29 00:25:22;;;;;;;15.57;8.88;;;;;;;1.79;78.01;99623.63;5061014;28;20035;-93
2023/01/29 00:27:47;;;;;;;15.25;7.63;;;;;;;1.80;77.82;99622.59;5035132;28;20417;-93
2023/01/29 00:30:17;;;;;;;18.02;8.90;;;;;;;1.81;78.76;99629.56;5063414;28;20053;-93
2023/01/29 00:32:43;;;;;;;13.45;8.52;;;;;;;1.79;78.59;99647.53;5060809;28;20109;-93
2023/01/29 00:35:09;;;;;;;17.17;8.98;;;;;;;1.79;78.49;99637.72;5044374;28;20111;-92
2023/01/29 00:37:34;;;;;;;11.35;7.85;;;;;;;1.71;78.60;99610.56;5047687;28;20024;-92
2023/01/29 00:40:00;;;;;;;13.68;7.72;;;;;;;1.79;78.70;99621.78;5063753;28;20120;-94
2023/01/29 00:45:10;;;;;;;13.10;8.25;;;;;;;1.89;78.19;99644.44;5046379;28;20035;-93
2023/01/29 00:47:36;;;;;;;15.45;8.43;;;;;;;2.00;78.30;99649.16;5076626;28;20031;-93
2023/01/29 00:50:03;;;;;;;12.02;7.28;;;;;;;1.85;78.33;99628.13;5063584;28;20034;-93
2023/01/29 00:52:28;;;;;;;16.17;7.85;;;;;;;1.95;78.06;99648.94;5047987;28;20028;-93
2023/01/29 00:54:58;;;;;;;14.82;8.85;;;;;;;1.89;78.34;99639.13;5069199;28;20023;-93
2023/01/29 00:57:24;;;;;;;11.48;8.13;;;;;;;1.94;77.72;99636.69;5051829;28;20031;-93
2023/01/29 00:59:50;;;;;;;10.98;7.15;;;;;;;1.92;78.02;99638.72;5067475;28;20030;-93
2023/01/29 01:05:01;;;;;;;12.02;7.43;;;;;;;2.02;77.93;99652.41;5089693;28;20057;-92
2023/01/29 01:07:27;;;;;;;13.73;8.27;;;;;;;1.87;77.68;99618.13;5051151;28;20506;-93
2023/01/29 01:12:37;;;;;;;17.77;9.55;;;;;;;1.88;78.03;99635.66;5070625;28;20558;-93
2023/01/29 01:15:03;;;;;;;14.63;9.13;;;;;;;1.82;78.06;99628.50;5083769;28;20028;-92
2023/01/29 01:17:28;;;;;;;12.23;8.52;;;;;;;1.80;78.13;99634.03;5060744;28;20052;-93
2023/01/29 01:19:53;;;;;;;13.80;8.85;;;;;;;1.75;77.98;99639.16;5044135;28;20032;-93
2023/01/29 01:22:19;;;;;;;13.20;7.53;;;;;;;1.74;78.38;99637.53;5043384;28;20020;-93
2023/01/29 01:24:44;;;;;;;15.10;8.27;;;;;;;1.88;78.13;99650.78;5046197;28;20157;-92
2023/01/29 01:27:11;;;;;;;16.92;8.35;;;;;;;1.80;78.04;99639.34;5047593;28;20493;-93
2023/01/29 01:29:37;;;;;;;15.23;8.18;;;;;;;1.75;78.41;99649.75;5047878;28;20024;-93
2023/01/29 01:32:04;;;;;;;14.73;8.38;;;;;;;1.90;78.28;99667.31;5047322;28;20048;-93
2023/01/29 01:34:29;;;;;;;13.77;8.43;;;;;;;1.82;78.48;99647.91;5061923;28;20058;-92
2023/01/29 01:36:55;;;;;;;14.30;7.65;;;;;;;1.76;78.08;99646.06;5064128;28;20036;-93
2023/01/29 01:39:21;;;;;;;12.73;7.82;;;;;;;1.89;77.82;99661.22;5080237;28;20028;-92
2023/01/29 01:41:46;;;;;;;14.00;8.52;;;;;;;1.86;78.38;99658.94;5063479;28;20024;-93
2023/01/29 01:44:49;;;;;;;15.15;8.65;;;;;;;1.99;77.75;99669.59;5082646;28;20168;-92
2023/01/29 01:47:15;;;;;;;13.90;6.82;;;;;;;1.95;77.74;99656.91;5083327;28;20059;-94
2023/01/29 01:49:41;;;;;;;12.60;7.65;;;;;;;1.95;77.74;99657.72;5046610;28;20089;-93
2023/01/29 01:52:06;;;;;;;12.85;7.55;;;;;;;1.90;77.97;99640.78;5046207;28;20035;-93
2023/01/29 01:54:32;;;;;;;15.43;8.40;;;;;;;1.79;78.09;99643.03;5047006;28;20028;-93
2023/01/29 01:57:14;;;;;;;10.60;7.60;;;;;;;1.89;77.74;99639.97;5045571;28;20174;-93
2023/01/29 01:59:45;;;;;;;11.73;6.80;;;;;;;1.86;77.61;99648.31;5065498;28;20091;-94
2023/01/29 02:10:27;;;;;;;16.60;8.85;;;;;;;1.85;78.99;99659.97;5090014;28;20034;-93
2023/01/29 02:12:52;;;;;;;10.48;7.07;;;;;;;1.86;78.25;99652.81;5064306;28;20024;-93
2023/01/29 02:15:18;;;;;;;12.60;7.63;;;;;;;1.73;78.59;99640.38;5047293;28;20093;-93
2023/01/29 02:17:47;;;;;;;12.32;7.50;;;;;;;1.73;78.07;99635.88;5046585;28;20077;-93
2023/01/29 02:20:28;;;;;;;12.90;8.27;;;;;;;1.76;77.95;99643.41;5048040;28;20471;-94
2023/01/29 02:22:55;;;;;;;11.88;7.53;;;;;;;1.78;78.77;99662.59;5027233;28;20025;-93
2023/01/29 02:25:20;;;;;;;13.35;7.80;;;;;;;1.86;79.08;99666.09;5118161;28;20011;-93
2023/01/29 02:28:02;;;;;;;11.57;6.88;;;;;;;1.90;79.04;99669.97;5097405;28;20458;-93
2023/01/29 02:30:36;;;;;;;12.25;6.93;;;;;;;1.77;78.42;99649.56;5095728;28;20051;-93
2023/01/29 02:33:24;;;;;;;10.38;7.00;;;;;;;1.96;77.63;99677.13;5041789;28;20057;-93
2023/01/29 02:36:21;;;;;;;9.13;6.63;;;;;;;1.95;78.08;99670.16;5061978;28;20023;-93
2023/01/29 02:39:35;;;;;;;10.90;6.30;;;;;;;1.83;77.65;99648.75;5042508;28;20044;-93
2023/01/29 02:42:10;;;;;;;9.68;5.93;;;;;;;1.81;77.78;99656.91;4977947;28;20031;-93
2023/01/29 02:45:09;;;;;;;12.05;6.50;;;;;;;1.73;78.11;99633.22;5038700;28;20037;-93
2023/01/29 02:47:57;;;;;;;10.27;6.18;;;;;;;1.87;78.56;99667.72;5075244;28;20027;-93
2023/01/29 02:50:23;;;;;;;14.50;7.93;;;;;;;1.95;78.54;99673.66;5067888;28;20032;-93
2023/01/29 02:52:55;;;;;;;10.43;7.30;;;;;;;1.91;78.03;99674.25;5098225;28;20032;-93
2023/01/29 02:55:41;;;;;;;10.57;6.88;;;;;;;1.86;78.09;99668.75;5098893;28;20031;-93
2023/01/29 02:58:18;;;;;;;12.07;7.55;;;;;;;1.93;78.29;99672.22;5026948;28;20402;-93
2023/01/29 03:00:45;;;;;;;11.73;6.90;;;;;;;1.89;77.82;99657.72;5044679;28;20031;-93
2023/01/29 03:03:24;;;;;;;12.07;7.60;;;;;;;1.95;77.81;99672.81;5045640;28;20020;-93
2023/01/29 03:05:55;;;;;;;17.27;8.90;;;;;;;1.86;78.49;99668.75;5043232;28;20024;-93
2023/01/29 03:08:42;;;;;;;17.13;8.25;;;;;;;1.98;78.52;99683.88;5062421;28;20032;-93
2023/01/29 03:11:12;;;;;;;11.48;6.60;;;;;;;1.93;77.67;99678.38;5047379;28;20027;-91
2023/01/29 03:13:48;;;;;;;12.90;7.47;;;;;;;1.91;77.50;99675.09;5046130;28;20452;-92
2023/01/29 03:16:39;;;;;;;11.63;7.13;;;;;;;1.98;78.19;99691.84;5058612;28;20031;-93
2023/01/29 03:19:09;;;;;;;13.02;7.88;;;;;;;1.85;77.59;99664.44;5076088;28;20063;-92
2023/01/29 03:21:50;;;;;;;10.57;6.57;;;;;;;1.81;78.47;99672.84;5035205;28;20046;-93
2023/01/29 03:32:37;;;;;;;10.02;6.60;;;;;;;1.74;78.42;99682.66;5066641;28;20117;-93
2023/01/29 03:35:07;;;;;;;12.05;7.05;;;;;;;1.75;79.24;99688.78;5044867;28;20016;-94
2023/01/29 03:37:33;;;;;;;15.43;8.25;;;;;;;1.75;79.43;99692.22;5045003;28;20111;-93
2023/01/29 03:40:01;;;;;;;9.68;7.13;;;;;;;1.59;79.25;99666.88;5061231;28;20028;-93
2023/01/29 03:42:28;;;;;;;10.20;6.68;;;;;;;1.88;78.77;99699.38;5056859;28;20024;-93
2023/01/29 03:45:04;;;;;;;10.27;5.88;;;;;;;1.95;77.86;99699.38;5080910;28;20031;-93
2023/01/29 03:47:48;;;;;;;12.35;6.97;;;;;;;1.86;79.20;99690.00;5080375;28;20097;-93
2023/01/29 03:50:19;;;;;;;10.68;6.68;;;;;;;1.87;78.29;99702.25;5077824;28;20028;-93
2023/01/29 03:52:55;;;;;;;13.07;7.63;;;;;;;1.84;79.02;99697.34;5092073;28;20031;-93
2023/01/29 03:55:22;;;;;;;10.05;7.15;;;;;;;1.86;79.10;99697.97;5081022;28;20028;-92
2023/01/29 03:57:59;;;;;;;12.88;6.85;;;;;;;1.76;78.55;99671.81;5066019;28;20048;-93
2023/01/29 04:00:31;;;;;;;11.43;7.90;;;;;;;1.80;78.91;99684.47;5044502;28;20019;-93
2023/01/29 04:03:20;;;;;;;13.85;8.93;;;;;;;1.76;78.82;99682.44;5060464;28;20030;-94
2023/01/29 04:05:51;;;;;;;10.85;7.72;;;;;;;1.83;78.46;99696.53;5062934;28;20065;-93
2023/01/29 04:08:24;;;;;;;17.42;9.00;;;;;;;1.72;78.84;99675.88;5095371;28;20118;-93
2023/01/29 04:10:50;;;;;;;12.07;7.55;;;;;;;1.73;79.21;99683.66;5060228;28;20042;-93
2023/01/29 04:13:15;;;;;;;12.02;8.15;;;;;;;1.72;78.62;99657.31;5061036;28;20019;-93
2023/01/29 04:15:52;;;;;;;11.57;7.50;;;;;;;1.87;78.45;99679.19;5064202;28;20034;-93
2023/01/29 04:18:17;;;;;;;13.30;7.53;;;;;;;1.73;78.16;99662.41;5046822;28;20024;-93
2023/01/29 04:20:43;;;;;;;13.73;7.90;;;;;;;1.83;78.12;99680.59;5043391;28;20115;-93
2023/01/29 04:23:21;;;;;;;14.85;8.85;;;;;;;1.95;78.16;99702.88;5059756;28;20081;-93
2023/01/29 04:26:08;;;;;;;13.52;7.85;;;;;;;1.82;77.48;99674.47;5060372;28;20023;-93
2023/01/29 04:28:53;;;;;;;13.80;8.52;;;;;;;1.97;78.17;99705.31;5081540;28;20019;-93
2023/01/29 04:31:19;;;;;;;12.10;8.48;;;;;;;1.87;77.80;99691.63;5089104;28;20040;-93
2023/01/29 04:33:53;;;;;;;14.38;8.13;;;;;;;2.00;77.49;99702.25;5064150;28;20055;-93
2023/01/29 04:36:25;;;;;;;14.07;8.30;;;;;;;1.94;77.62;99701.22;5088870;28;20089;-93
2023/01/29 04:39:06;;;;;;;14.05;7.88;;;;;;;2.04;77.72;99713.31;5076763;28;20027;-93
2023/01/29 04:42:06;;;;;;;13.85;8.25;;;;;;;2.07;77.52;99712.88;5060482;28;20035;-93
2023/01/29 04:45:06;;;;;;;12.25;7.50;;;;;;;1.88;77.54;99685.31;5076507;28;20039;-94
2023/01/29 04:47:53;;;;;;;13.52;8.38;;;;;;;1.84;78.08;99700.00;5071555;28;20043;-93
2023/01/29 04:50:23;;;;;;;17.00;8.68;;;;;;;1.86;78.18;99711.22;5079903;28;20422;-94
2023/01/29 04:52:53;;;;;;;15.02;8.68;;;;;;;1.81;78.21;99702.03;5078904;28;20028;-93
2023/01/29 04:55:23;;;;;;;14.43;8.40;;;;;;;1.86;78.63;99713.88;5080485;28;20035;-92
2023/01/29 04:57:56;;;;;;;13.93;8.52;;;;;;;1.77;79.10;99710.63;5052174;28;20089;-94
2023/01/29 05:00:27;;;;;;;12.77;7.53;;;;;;;1.77;78.31;99703.47;5044908;28;20131;-93
2023/01/29 05:02:52;;;;;;;13.63;8.98;;;;;;;1.82;78.20;99714.28;5055775;28;20050;-94
2023/01/29 05:05:18;;;;;;;15.75;8.23;;;;;;;1.74;78.90;99714.50;5062897;28;20520;-93
2023/01/29 05:07:44;;;;;;;12.65;8.25;;;;;;;1.73;78.89;99709.38;5063744;28;20024;-93
2023/01/29 05:10:10;;;;;;;13.13;8.20;;;;;;;1.71;78.43;99698.16;5063145;28;20024;-93
2023/01/29 05:12:36;;;;;;;14.10;8.75;;;;;;;1.72;78.38;99699.78;5054790;28;20058;-94
2023/01/29 05:15:02;;;;;;;14.63;8.27;;;;;;;1.88;78.51;99725.13;5043549;28;20032;-94
2023/01/29 05:17:27;;;;;;;15.30;8.98;;;;;;;1.80;78.18;99711.00;5043764;28;20042;-93
2023/01/29 05:19:54;;;;;;;13.25;8.77;;;;;;;1.79;78.27;99709.41;5043283;28;20110;-93
2023/01/29 05:22:21;;;;;;;19.63;8.93;;;;;;;1.99;77.84;99737.78;5060738;28;20489;-94
2023/01/29 05:24:47;;;;;;;21.85;11.73;;;;;;;2.00;78.38;99731.47;5044406;28;20114;-93
2023/01/29 05:30:06;;;;;;;21.08;11.18;;;;;;;2.04;77.81;99729.22;5066192;28;20027;-94
2023/01/29 05:32:32;;;;;;;19.88;12.60;;;;;;;2.01;78.06;99733.09;5042484;28;20032;-94
2023/01/29 05:34:57;;;;;;;20.95;13.10;;;;;;;2.05;77.64;99730.84;5043104;28;20024;-94
2023/01/29 05:37:23;;;;;;;18.33;10.30;;;;;;;1.91;78.09;99730.03;5043388;28;20498;-94
2023/01/29 05:39:48;;;;;;;24.05;12.18;;;;;;;1.89;78.36;99726.75;5061828;28;20032;-94
2023/01/29 05:42:13;;;;;;;22.40;12.43;;;;;;;1.83;78.28;99725.75;5046536;28;20016;-94
2023/01/29 05:44:39;;;;;;;19.80;12.95;;;;;;;1.78;78.45;99726.31;5047838;28;20073;-94
2023/01/29 05:47:05;;;;;;;24.85;14.18;;;;;;;1.79;78.75;99741.25;5047266;28;20028;-94
2023/01/29 05:49:30;;;;;;;22.33;13.98;;;;;;;1.59;79.47;99725.28;5047176;28;20027;-94
2023/01/29 05:51:56;;;;;;;20.05;11.70;;;;;;;1.90;78.44;99753.09;5047205;28;20024;-94
2023/01/29 05:54:21;;;;;;;20.45;11.90;;;;;;;1.76;78.46;99741.63;5066298;28;20432;-94
2023/01/29 05:56:47;;;;;;;19.55;11.25;;;;;;;1.92;78.69;99767.00;5060706;28;20040;-94
2023/01/29 05:59:13;;;;;;;21.73;12.02;;;;;;;1.80;78.47;99758.00;5065696;28;20034;-93
2023/01/29 06:01:39;;;;;;;21.83;11.13;;;;;;;1.71;78.58;99754.72;5059628;28;20055;-94
2023/01/29 06:04:04;;;;;;;18.70;10.82;;;;;;;1.66;79.39;99754.50;5042789;28;20020;-93
2023/01/29 06:06:30;;;;;;;16.08;10.80;;;;;;;1.89;79.09;99783.34;5033329;28;20020;-94
2023/01/29 06:08:55;;;;;;;16.15;9.07;;;;;;;1.92;78.90;99771.50;5050464;28;20027;-94
2023/01/29 06:11:21;;;;;;;13.95;7.97;;;;;;;1.85;77.97;99768.00;5046544;28;20082;-94
2023/01/29 06:13:47;;;;;;;14.55;8.55;;;;;;;2.05;78.10;99782.13;5063205;28;20085;-93
2023/01/29 06:16:12;;;;;;;14.35;8.38;;;;;;;1.97;78.43;99779.66;5047166;28;20098;-94
2023/01/29 06:18:39;;;;;;;13.20;7.70;;;;;;;1.99;78.33;99778.47;5059948;28;20034;-93
2023/01/29 06:21:05;;;;;;;11.13;7.28;;;;;;;2.08;78.10;99794.19;5083776;28;20422;-93
2023/01/29 06:23:30;;;;;;;14.43;7.63;;;;;;;2.05;78.04;99787.44;5056256;28;20100;-94
2023/01/29 06:26:00;;;;;;;10.70;6.93;;;;;;;1.92;78.20;99787.44;5049909;28;20087;-93
2023/01/29 06:28:25;;;;;;;11.27;6.40;;;;;;;2.09;77.53;99799.28;5074090;28;20023;-92
2023/01/29 06:30:51;;;;;;;4.95;3.65;;;;;;;2.14;75.25;99802.19;5061364;28;20024;-93
2023/01/29 06:33:16;;;;;;;6.10;3.83;;;;;;;2.03;75.54;99794.78;5056491;28;20035;-94
2023/01/29 06:35:42;;;;;;;5.03;3.47;;;;;;;1.94;75.47;99794.16;5063538;28;20498;-93
2023/01/29 06:38:07;;;;;;;5.35;3.53;;;;;;;1.91;75.52;99810.50;5054196;28;20023;-93
2023/01/29 06:40:33;;;;;;;11.13;6.07;;;;;;;1.98;75.79;99806.03;5082011;28;20493;-94
2023/01/29 06:43:01;;;;;;;6.32;4.65;;;;;;;1.96;75.44;99813.38;5058620;28;20027;-93
2023/01/29 06:45:27;;;;;;;5.13;4.03;;;;;;;1.95;75.26;99801.13;5045679;28;20020;-92
2023/01/29 06:47:52;;;;;;;5.57;4.03;;;;;;;1.99;74.94;99814.81;5045679;28;20458;-94
2023/01/29 06:50:18;;;;;;;20.77;11.88;;;;;;;2.10;74.77;99818.72;5046206;28;20028;-93
2023/01/29 06:52:43;;;;;;;5.75;4.40;;;;;;;1.93;75.65;99807.63;5044942;28;20051;-93
2023/01/29 06:55:08;;;;;;;7.90;4.38;;;;;;;1.90;76.55;99826.63;5044839;28;20024;-93
2023/01/29 06:57:34;;;;;;;4.95;3.45;;;;;;;1.80;76.26;99811.91;5045154;28;20053;-93
2023/01/29 07:00:00;;;;;;;10.35;6.20;;;;;;;1.93;75.47;99823.56;5046128;28;20020;-94
2023/01/29 07:02:28;;;;;;;6.15;4.07;;;;;;;2.16;75.88;99842.63;5045941;28;20016;-93
2023/01/29 07:04:53;;;;;;;9.82;5.80;;;;;;;1.90;75.55;99808.88;5045453;28;20469;-93
2023/01/29 07:07:18;;;;;;;10.27;5.53;;;;;;;2.12;75.10;99824.66;5062341;28;20020;-94
2023/01/29 07:09:44;;;;;;;6.65;4.82;;;;;;;2.04;74.31;99825.66;5063180;28;20024;-94
2023/01/29 07:12:09;;;;;;;6.90;4.80;;;;;;;1.98;75.04;99832.59;5045977;28;20033;-94
2023/01/29 07:14:35;;;;;;;5.13;4.22;;;;;;;1.73;75.41;99824.34;5064419;28;20063;-94
2023/01/29 07:17:00;;;;;;;6.95;3.47;;;;;;;1.79;76.05;99846.63;5051565;28;20173;-93
2023/01/29 07:19:28;;;;;;;6.60;4.18;;;;;;;1.71;76.23;99837.00;5062023;28;20092;-95
2023/01/29 07:21:54;;;;;;;6.57;4.25;;;;;;;1.57;76.61;99824.69;5084133;28;20015;-95
2023/01/29 07:24:19;;;;;;;9.45;6.88;;;;;;;1.58;76.83;99827.16;5066442;28;20544;-96
2023/01/29 07:26:45;;;;;;;8.73;5.38;;;;;;;1.58;76.58;99834.31;5065784;28;20122;-96
2023/01/29 07:29:10;;;;;;;6.25;4.68;;;;;;;1.66;77.38;99844.75;5065623;28;20081;-95
2023/01/29 07:31:36;;;;;;;8.15;4.40;;;;;;;1.61;78.23;99837.38;5062312;28;20048;-94
2023/01/29 07:34:01;;;;;;;8.50;5.18;;;;;;;1.76;77.74;99837.22;5045372;28;20075;-96
2023/01/29 07:36:27;;;;;;;9.82;5.90;;;;;;;1.88;76.49;99839.28;5044476;28;20494;-96
2023/01/29 07:38:53;;;;;;;9.32;6.20;;;;;;;1.86;77.54;99842.16;5047445;28;20024;-94
2023/01/29 07:41:18;;;;;;;10.50;6.78;;;;;;;1.82;77.08;99833.75;5064654;28;20443;-94
2023/01/29 07:43:44;;;;;;;7.72;5.47;;;;;;;1.91;75.93;99838.88;5046740;28;20478;-95
2023/01/29 07:46:09;;;;;;;10.45;5.65;;;;;;;1.93;76.10;99842.16;5062761;28;20070;-95
2023/01/29 07:48:35;;;;;;;11.57;7.28;;;;;;;1.98;75.64;99843.19;5044600;28;20020;-92
2023/01/29 07:51:00;;;;;;;9.85;6.78;;;;;;;1.89;76.94;99856.84;5038861;28;20020;-93
2023/01/29 07:53:26;;;;;;;13.90;8.65;;;;;;;2.05;76.19;99842.41;5024854;28;20047;-93
2023/01/29 07:55:52;;;;;;;15.07;7.50;;;;;;;1.96;75.89;99844.44;5024226;28;20127;-92
2023/01/29 07:58:17;;;;;;;13.48;7.65;;;;;;;1.93;76.64;99852.78;5024925;28;20081;-92
2023/01/29 08:00:43;;;;;;;12.85;7.88;;;;;;;1.89;76.29;99844.41;5023586;28;20399;-92
2023/01/29 08:03:11;;;;;;;9.90;5.95;;;;;;;2.03;76.35;99869.16;5039582;28;20536;-92
2023/01/29 08:05:36;;;;;;;9.77;6.03;;;;;;;1.85;77.21;99852.97;5023446;28;20032;-93
2023/01/29 08:08:02;;;;;;;9.70;6.68;;;;;;;1.93;76.66;99860.75;5040601;28;20021;-93
2023/01/29 08:10:27;;;;;;;11.52;7.25;;;;;;;2.05;77.48;99863.66;5024589;28;20025;-92
2023/01/29 08:12:56;;;;;;;9.73;5.90;;;;;;;2.17;76.77;99878.78;5024137;28;20020;-92
2023/01/29 08:15:22;;;;;;;7.30;4.60;;;;;;;2.31;74.80;99878.84;5024002;28;20021;-94
2023/01/29 08:17:48;;;;;;;10.98;6.30;;;;;;;2.19;75.20;99866.13;5025739;28;20029;-93
2023/01/29 08:20:14;;;;;;;12.00;6.38;;;;;;;2.22;75.51;99867.56;5043919;28;20044;-93
2023/01/29 08:22:40;;;;;;;11.25;6.13;;;;;;;2.37;74.83;99878.84;5038952;28;20070;-93
2023/01/29 08:25:05;;;;;;;8.63;6.15;;;;;;;2.39;75.34;99884.78;5020311;28;20025;-94
2023/01/29 08:27:31;;;;;;;10.43;5.60;;;;;;;2.40;75.38;99875.75;5005576;28;20025;-94
2023/01/29 08:29:56;;;;;;;8.13;5.57;;;;;;;2.53;74.25;99874.97;5038317;28;20023;-93
2023/01/29 08:32:22;;;;;;;7.65;5.68;;;;;;;2.55;75.06;99870.28;5043763;28;20465;-94
2023/01/29 08:34:48;;;;;;;7.97;5.32;;;;;;;2.77;73.13;99904.63;5044473;28;20016;-96
2023/01/29 08:37:13;;;;;;;8.15;6.07;;;;;;;2.70;73.79;99898.47;5047876;28;20036;-92
2023/01/29 08:39:38;;;;;;;11.50;6.68;;;;;;;2.60;74.59;99899.72;5045347;28;20035;-92
2023/01/29 08:42:04;;;;;;;13.13;9.20;;;;;;;2.62;74.66;99903.00;5031051;28;20025;-93
2023/01/29 08:44:31;;;;;;;11.00;6.70;;;;;;;2.68;74.57;99885.41;5025389;28;20459;-94
2023/01/29 08:46:58;;;;;;;9.05;6.22;;;;;;;2.88;74.51;99905.88;5024941;28;20025;-93
2023/01/29 08:49:29;;;;;;;10.77;7.63;;;;;;;2.81;74.15;99892.56;5007349;28;20049;-94
2023/01/29 08:51:55;;;;;;;14.93;7.60;;;;;;;3.01;72.50;99897.91;5006019;28;20025;-93
2023/01/29 08:54:22;;;;;;;13.15;7.22;;;;;;;3.02;72.11;99879.03;5004848;28;20029;-93
2023/01/29 08:56:47;;;;;;;14.88;8.00;;;;;;;3.14;72.29;99889.06;5005174;28;20056;-92
2023/01/29 08:59:13;;;;;;;12.60;6.30;;;;;;;3.24;71.90;99906.25;5005539;28;20032;-95
2023/01/29 09:01:42;;;;;;;13.32;7.40;;;;;;;3.46;70.72;99903.31;5021384;28;20088;-94
2023/01/29 09:04:07;;;;;;;10.77;7.47;;;;;;;3.47;71.06;99877.56;5018440;28;20035;-95
2023/01/29 09:06:33;;;;;;;12.48;7.53;;;;;;;3.53;70.81;99861.53;5024743;28;20013;-94
2023/01/29 09:08:58;;;;;;;10.25;6.82;;;;;;;3.65;73.05;99898.97;5028251;28;20020;-94
2023/01/29 09:11:24;;;;;;;8.85;6.25;;;;;;;3.63;72.10;99893.88;5035516;28;20033;-94
2023/01/29 09:13:49;;;;;;;10.27;5.82;;;;;;;3.74;69.99;99889.75;5030042;28;20020;-94
2023/01/29 09:16:15;;;;;;;9.55;6.40;;;;;;;3.73;69.75;99895.25;5057232;28;20054;-94
2023/01/29 09:18:41;;;;;;;14.13;7.50;;;;;;;3.83;71.08;99917.75;5029295;28;20035;-93
2023/01/29 09:21:06;;;;;;;9.23;6.47;;;;;;;3.68;70.61;99911.06;5038180;28;20029;-94
2023/01/29 09:23:32;;;;;;;11.65;6.55;;;;;;;3.48;72.41;99892.47;5008654;28;20024;-94
2023/01/29 09:25:57;;;;;;;11.73;6.85;;;;;;;3.59;71.15;99910.47;5008547;28;20024;-94
2023/01/29 09:28:23;;;;;;;15.15;6.93;;;;;;;3.45;70.93;99891.06;5008010;28;20024;-95
2023/01/29 09:30:48;;;;;;;8.80;5.47;;;;;;;3.44;69.68;99882.25;5007993;28;20024;-93
2023/01/29 09:33:14;;;;;;;11.52;6.00;;;;;;;3.49;70.18;99888.81;5026937;28;20395;-93
2023/01/29 09:35:40;;;;;;;13.05;7.55;;;;;;;3.58;71.69;99895.53;5024137;28;20021;-93
2023/01/29 09:38:07;;;;;;;13.40;7.03;;;;;;;3.52;71.80;99896.34;5008219;28;20108;-94
2023/01/29 09:40:34;;;;;;;10.52;6.38;;;;;;;3.54;71.41;99910.28;5043999;28;20035;-94
2023/01/29 09:43:03;;;;;;;10.98;6.68;;;;;;;3.50;71.65;99904.53;5064085;28;20086;-94
2023/01/29 09:45:33;;;;;;;7.95;5.57;;;;;;;3.21;71.96;99879.22;5064083;28;20028;-93
2023/01/29 09:48:00;;;;;;;14.32;7.47;;;;;;;3.27;71.35;99881.06;5047970;28;20115;-94
2023/01/29 09:50:34;;;;;;;14.63;9.10;;;;;;;3.21;70.71;99873.91;5046539;28;20024;-93
2023/01/29 09:53:19;;;;;;;14.48;8.88;;;;;;;3.35;71.78;99902.13;5028034;28;20368;-95
2023/01/29 09:55:54;;;;;;;15.32;10.50;;;;;;;3.32;71.84;99877.75;5044173;28;20375;-93
2023/01/29 09:58:19;;;;;;;9.68;6.85;;;;;;;3.35;71.53;99890.66;5028355;28;20065;-94
2023/01/29 10:01:23;;;;;;;15.38;10.05;;;;;;;3.31;72.03;99892.13;5061739;28;20008;-95
2023/01/29 10:04:03;;;;;;;12.48;8.30;;;;;;;3.31;72.39;99898.25;5038352;28;20033;-94
2023/01/29 10:06:47;;;;;;;9.35;6.40;;;;;;;3.22;72.49;99895.00;5060684;28;20044;-93
2023/01/29 10:09:13;;;;;;;9.35;6.43;;;;;;;3.10;72.87;99888.66;5059978;28;20035;-93
2023/01/29 10:11:52;;;;;;;12.40;8.25;;;;;;;3.03;73.12;99894.00;5078249;28;20032;-93
2023/01/29 10:14:49;;;;;;;51.83;22.92;;;;;;;2.99;73.13;99873.34;5051211;28;20027;-93
2023/01/29 10:17:49;;;;;;;13.90;8.63;;;;;;;3.03;73.70;99885.22;5059147;28;20036;-94
2023/01/29 10:20:40;;;;;;;27.63;14.20;;;;;;;3.09;74.00;99887.00;5073323;28;20114;-94
2023/01/29 10:23:28;;;;;;;11.48;8.30;;;;;;;2.74;73.75;99862.50;5076941;28;20091;-96
2023/01/29 10:25:54;;;;;;;15.35;9.13;;;;;;;2.81;73.70;99871.31;5085537;28;20031;-96
2023/01/29 10:28:30;;;;;;;14.95;10.48;;;;;;;2.71;74.54;99841.66;5046629;28;20024;-94
2023/01/29 10:31:01;;;;;;;14.27;8.43;;;;;;;2.87;74.64;99867.81;5047485;28;20024;-93
2023/01/29 10:33:33;;;;;;;14.20;8.18;;;;;;;2.92;75.05;99864.53;5062995;28;20094;-94
2023/01/29 10:36:02;;;;;;;16.08;8.90;;;;;;;3.01;74.89;99866.78;5027488;28;20494;-95
2023/01/29 10:38:32;;;;;;;12.98;8.55;;;;;;;3.10;73.75;99875.38;5043969;28;20084;-94
2023/01/29 10:41:10;;;;;;;17.42;10.38;;;;;;;3.27;73.74;99866.94;5043156;28;20020;-93
2023/01/29 10:44:07;;;;;;;12.75;7.72;;;;;;;3.22;72.93;99864.91;5058600;28;20020;-93
2023/01/29 10:46:57;;;;;;;21.27;10.73;;;;;;;3.24;72.62;99869.00;5060092;28;20028;-93
2023/01/29 10:49:45;;;;;;;16.48;9.00;;;;;;;3.24;72.30;99847.72;5063805;28;20024;-95
2023/01/29 10:52:22;;;;;;;11.52;7.30;;;;;;;3.28;72.30;99856.09;5065709;28;20402;-94
2023/01/29 10:54:57;;;;;;;15.65;8.65;;;;;;;3.32;72.56;99851.16;5079375;28;20028;-94
2023/01/29 10:57:28;;;;;;;14.60;9.00;;;;;;;3.20;74.09;99851.81;5079552;28;20031;-94
2023/01/29 11:00:18;;;;;;;18.75;10.60;;;;;;;2.98;73.24;99824.63;5063295;28;20472;-94
2023/01/29 11:02:45;;;;;;;14.75;8.38;;;;;;;3.15;73.32;99834.81;5044609;28;20024;-93
2023/01/29 11:05:32;;;;;;;13.00;9.00;;;;;;;3.09;73.15;99828.47;5026471;28;20024;-95
2023/01/29 11:08:23;;;;;;;12.32;7.88;;;;;;;3.16;73.32;99816.00;5046595;28;20038;-94
2023/01/29 11:11:01;;;;;;;7.20;5.38;;;;;;;3.41;72.41;99841.94;5064055;28;20024;-94
2023/01/29 11:13:30;;;;;;;10.27;6.55;;;;;;;3.38;72.10;99827.19;5063710;28;20051;-94
2023/01/29 11:15:56;;;;;;;11.10;7.22;;;;;;;3.16;73.04;99801.88;5046838;28;20020;-95
2023/01/29 11:18:22;;;;;;;14.38;7.97;;;;;;;3.43;72.61;99823.91;5045550;28;20374;-95
2023/01/29 11:20:59;;;;;;;21.83;11.57;;;;;;;3.29;72.74;99815.13;5047217;28;20024;-93
2023/01/29 11:23:27;;;;;;;15.50;9.02;;;;;;;3.37;72.67;99819.41;5058849;28;20088;-94
2023/01/29 11:25:53;;;;;;;11.43;7.60;;;;;;;3.32;72.78;99806.75;5041929;28;20057;-95
2023/01/29 11:28:35;;;;;;;13.43;8.77;;;;;;;3.23;73.30;99800.00;5025800;28;20021;-94
2023/01/29 11:31:01;;;;;;;12.85;7.78;;;;;;;3.30;72.68;99798.16;5025329;28;20056;-94
2023/01/29 11:33:27;;;;;;;23.65;11.35;;;;;;;3.37;72.50;99790.16;5043872;28;20117;-94
2023/01/29 11:35:55;;;;;;;17.73;9.68;;;;;;;3.35;72.77;99797.53;5027397;28;20028;-95
2023/01/29 11:38:25;;;;;;;12.25;8.18;;;;;;;3.37;72.68;99800.78;5027439;28;20107;-95
2023/01/29 11:40:51;;;;;;;22.73;11.48;;;;;;;3.50;72.49;99813.22;5026445;28;20028;-95
2023/01/29 11:43:19;;;;;;;19.77;10.90;;;;;;;3.36;72.31;99786.66;5044500;28;20000;-94
2023/01/29 11:45:51;;;;;;;22.10;12.80;;;;;;;3.25;73.66;99787.31;5026887;28;20043;-94
2023/01/29 11:48:18;;;;;;;13.82;8.85;;;;;;;3.32;74.12;99806.75;5027515;28;20036;-95
2023/01/29 11:50:50;;;;;;;16.17;9.63;;;;;;;3.21;74.68;99781.59;5042674;28;20028;-95
2023/01/29 11:53:35;;;;;;;;;;;;;;;3.47;74.19;99814.47;5042945;28;20024;-95
2023/01/29 11:56:45;;;;;;;13.63;7.80;;;;;;;3.17;75.85;99804.31;5044625;28;19912;-96
2023/01/29 11:59:38;;;;;;;13.77;7.82;;;;;;;2.93;76.01;99768.59;5058619;28;20521;-94
2023/01/29 12:02:09;;;;;;;11.68;7.47;;;;;;;3.14;74.38;99772.00;5039082;28;20032;-95
2023/01/29 12:05:16;;;;;;;11.20;7.38;;;;;;;3.21;74.87;99778.91;5031607;28;20020;-96
2023/01/29 12:07:42;;;;;;;11.30;7.00;;;;;;;3.07;73.91;99774.66;5052168;28;20089;-94
2023/01/29 12:10:32;;;;;;;12.27;7.18;;;;;;;3.38;74.02;99797.94;5043203;28;20017;-94
2023/01/29 12:13:10;;;;;;;12.25;8.10;;;;;;;3.33;74.01;99775.63;5034869;28;20039;-95
2023/01/29 12:15:40;;;;;;;14.13;8.20;;;;;;;2.97;74.31;99753.03;5044284;28;20530;-96
2023/01/29 12:18:07;;;;;;;12.95;8.20;;;;;;;3.05;74.49;99771.44;5027172;28;20491;-96